Currently 67°F in Anza, California, USA
67°F
67°F / 49°F
5 mph SE
0.00"
Tuesday, November 21, 2017 7:57 AM PST

Anza, California Weather Summary
Last 36 Hours

Temperature Winds Hourly Humidity Dewpoint
Time Report Norm Report Norm Max Gusts Precip. Rpt. Norm Rpt. Norm Pressure
1,2Tue 07:57 AM  66.8°F  53°F  5 mph SE  6 mph  9 mph  0.00"  23%  56%  26°F  37°F  N/A
Tue 07:00 AM  59.3°F  44°F  2 mph S  5 mph  11 mph  0.00"  27%  66%  24°F  33°F  N/A
Tue 06:00 AM  63.9°F  44°F  6 mph S  4 mph  14 mph  0.00"  27%  66%  28°F  33°F  N/A
Tue 05:00 AM  59.3°F  44°F  5 mph SW  4 mph  12 mph  0.00"  26%  67%  23°F  33°F  N/A
Tue 04:00 AM  54.2°F  44°F  5 mph SE  3 mph  4 mph  0.00"  30%  68%  22°F  34°F  N/A
Tue 03:00 AM  52.1°F  44°F  calm  4 mph  6 mph  0.00"  34%  68%  23°F  34°F  N/A
Tue 02:00 AM  50.3°F  44°F  calm  4 mph  5 mph  0.00"  36%  68%  23°F  34°F  N/A
3Tue 01:48 AM  48.7°F  44°F  4 mph E  4 mph  5 mph  ----  37%  68%  23°F  34°F  N/A
Tue 01:00 AM  50.5°F  44°F  4 mph SE  4 mph  5 mph  0.00"  34%  69%  22°F  34°F  N/A
Tue 12:00 AM  55.8°F  45°F  4 mph SE  4 mph  7 mph  0.00"  29%  68%  22°F  34°F  N/A
Mon 11:00 PM  54.5°F  45°F  6 mph SE  4 mph  7 mph  0.00"  31%  68%  23°F  35°F  N/A
Mon 10:00 PM  50.3°F  46°F  4 mph SE  4 mph  7 mph  0.00"  35%  67%  23°F  35°F  N/A
Mon 09:00 PM  47.1°F  47°F  calm  5 mph  5 mph  0.00"  40%  66%  23°F  35°F  N/A
Mon 08:00 PM  47.5°F  47°F  4 mph NW  5 mph  3 mph  0.00"  38%  65%  22°F  36°F  N/A
Mon 07:00 PM  52.1°F  49°F  calm  5 mph  7 mph  0.00"  33%  63%  23°F  36°F  N/A
Mon 06:00 PM  55.5°F  50°F  3 mph SE  5 mph  5 mph  0.00"  29%  61%  23°F  37°F  N/A
Mon 05:00 PM  60.5°F  54°F  4 mph N  6 mph  12 mph  0.00"  25%  55%  23°F  37°F  N/A
Mon 04:00 PM  66.9°F  58°F  8 mph NW  9 mph  19 mph  0.00"  20%  47%  23°F  37°F  N/A
Mon 03:00 PM  69.2°F  60°F  11 mph W  10 mph  23 mph  0.00"  20%  43%  24°F  37°F  N/A
Mon 02:00 PM  72.2°F  62°F  14 mph W  10 mph  21 mph  0.00"  15%  41%  21°F  37°F  N/A
Mon 01:00 PM  73.3°F  62°F  10 mph NW  10 mph  19 mph  0.00"  14%  41%  19°F  37°F  N/A
Mon 12:00 PM  71.7°F  62°F  9 mph W  10 mph  19 mph  0.00"  13%  41%  17°F  37°F  N/A
Mon 11:00 AM  71.1°F  61°F  12 mph W  10 mph  18 mph  0.00"  12%  42%  14°F  37°F  N/A
Mon 10:00 AM  71.0°F  59°F  12 mph W  9 mph  16 mph  0.00"  10%  45%  9°F  37°F  N/A
Mon 09:00 AM  65.9°F  57°F  3 mph NW  8 mph  3 mph  0.00"  19%  48%  20°F  37°F  N/A
Mon 08:00 AM  55.3°F  53°F  calm  6 mph  3 mph  0.00"  29%  55%  23°F  37°F  N/A
Mon 07:00 AM  41.6°F  44°F  calm  4 mph  5 mph  0.00"  40%  66%  18°F  33°F  N/A
Mon 06:00 AM  48.0°F  44°F  4 mph NE  4 mph  5 mph  0.00"  33%  66%  19°F  33°F  N/A
Mon 05:00 AM  48.7°F  45°F  4 mph NE  4 mph  7 mph  0.00"  34%  67%  20°F  34°F  N/A
Mon 04:00 AM  50.8°F  44°F  5 mph SE  3 mph  8 mph  0.00"  34%  67%  22°F  34°F  N/A
Mon 03:00 AM  47.1°F  45°F  5 mph SE  4 mph  8 mph  0.00"  39%  68%  22°F  34°F  N/A
Mon 02:00 AM  33.0°F  45°F  2 mph W  4 mph  none  0.00"  57%  67%  19°F  34°F  N/A
Mon 01:00 AM  35.1°F  45°F  calm  4 mph  5 mph  0.00"  54%  68%  20°F  35°F  N/A
Mon 12:00 AM  36.5°F  45°F  calm  4 mph  6 mph  0.00"  53%  67%  20°F  35°F  N/A
Sun 11:00 PM  43.7°F  46°F  calm  4 mph  7 mph  0.00"  43%  67%  22°F  35°F  N/A
Sun 10:00 PM  39.6°F  47°F  4 mph W  4 mph  7 mph  0.00"  47%  67%  20°F  36°F  N/A
Sun 09:00 PM  40.0°F  47°F  2 mph S  5 mph  4 mph  0.00"  45%  65%  19°F  36°F  N/A
Sun 08:00 PM  37.4°F  48°F  calm  5 mph  none  0.00"  46%  64%  18°F  36°F  N/A

  1. Current weather data. No green row appears if the current weather data is also the high or low for the current day.
  2. High temperature for the current day.
  3. Low temperature for the current day.

The Anza, California weather pages are a service of WeatherCurrents. The Anza Valley is southwestern Riverside County, east of Temecula and Aguanga, south of Mount San Jacinto and west of Mount Santa Rosa.
Copyright ©Tue Nov 21 07:58:25 PST 2017  WeatherCurrents. All rights reserved. - Submit questions and comments - Privacy Policy

This page automatically refreshes every 10 minutes.